Current | Forecast
Updated: 11:30 AM +07 on February 21, 2018
Observed at Krasnoyarsk, Russia
Temperature 18°F
Windchill 5°F
Humidity 73%
Dew Point 10°F
Wind West at 11 mph
Pressure 30.21 in (Steady)
Conditions Light Snow Showers
Visibility 4.3 miles
UV 1 out of 16
Clouds Mostly Cloudy (BKN) : 2100 ft
Yesterday's Maximum 18°F
Yesterday's Minimum 12°F approx.
Yesterday's Heating Degree Days 50 approx.
Sunrise8:07 AM +07
Sunset6:10 PM +07
Moon Rise10:18 AM +07
Moon Set
Moon PhaseMoon Phase
Waxing Crescent
Raw METARMETAR UNKL 210430Z 28005MPS 7000 -SHSN BKN021CB M08/M12 Q1023 R29/410150 NOSIG RMK QFE741


Monday
. High: 37° F.
Tuesday
. High: 46° F.
Wednesday
. High: 42° F.
Thursday
. High: 48° F.
Friday
. High: 55° F.
Saturday
. High: 60° F.
Sunday
. High: 71° F.
Monday
. High: 66° F.

Units: English | Metric

Find the Weather for any City, State or Zipcode, or Country:

U.S. State List | Severe Weather | Tropical Storms | Ski Conditions
United States | Canada | Central America | South America | Asia | Europe | Australia | Africa | Islands

Weather Underground

© Copyright 2018
The Weather Company, LLC